Time;durP1;ratioP1;P1;durP2;ratioP2;P2;SDS_P1;SDS_P2;PMS_P1;PMS_P2;Temp;Humidity;BMP_temperature;BMP_pressure;BME280_temperature;BME280_humidity;BME280_pressure;Samples;Min_cycle;Max_cycle;Signal;HPM_P1;HPM_P2
2020/12/13 00:00:46;;;;;;;23.87;18.57;;;8.00;99.90;;;;;;5010609;28;20180;-64
2020/12/13 00:03:12;;;;;;;21.10;16.93;;;8.10;99.90;;;;;;5010925;28;20528;-66
2020/12/13 00:05:38;;;;;;;21.60;17.07;;;8.10;99.90;;;;;;5011223;28;20702;-64
2020/12/13 00:08:04;;;;;;;23.23;17.97;;;8.10;99.90;;;;;;5010829;28;20180;-63
2020/12/13 00:10:29;;;;;;;21.77;17.50;;;8.10;99.90;;;;;;5011027;28;20458;-64
2020/12/13 00:12:55;;;;;;;19.90;17.13;;;8.10;99.90;;;;;;5010695;28;20531;-64
2020/12/13 00:15:21;;;;;;;20.53;16.97;;;8.10;99.90;;;;;;5010593;28;20188;-65
2020/12/13 00:17:47;;;;;;;21.93;17.60;;;8.00;99.90;;;;;;5011171;28;20236;-64
2020/12/13 00:20:13;;;;;;;19.00;15.93;;;8.00;99.90;;;;;;5013248;28;20176;-63
2020/12/13 00:22:38;;;;;;;23.97;17.90;;;7.90;99.90;;;;;;4996360;28;20539;-65
2020/12/13 00:25:04;;;;;;;22.00;17.10;;;7.80;99.90;;;;;;4993736;28;20527;-65
2020/12/13 00:27:30;;;;;;;19.20;15.77;;;7.80;99.90;;;;;;5000399;28;20189;-64
2020/12/13 00:29:55;;;;;;;22.90;17.07;;;7.70;99.90;;;;;;4998080;28;20190;-65
2020/12/13 00:32:26;;;;;;;19.67;16.77;;;7.70;99.90;;;;;;4990686;28;20181;-65
2020/12/13 00:34:52;;;;;;;19.57;15.97;;;7.60;99.90;;;;;;4996612;28;20204;-64
2020/12/13 00:37:18;;;;;;;20.83;16.13;;;7.60;99.90;;;;;;5007250;28;20810;-64
2020/12/13 00:39:43;;;;;;;21.03;16.50;;;7.60;99.90;;;;;;5005802;28;20203;-64
2020/12/13 00:42:09;;;;;;;35.10;15.73;;;7.60;99.90;;;;;;4993777;28;20228;-64
2020/12/13 00:44:34;;;;;;;19.67;14.57;;;7.60;99.90;;;;;;4999215;28;20188;-64
2020/12/13 00:47:00;;;;;;;20.27;14.37;;;7.60;99.90;;;;;;4996174;28;20627;-66
2020/12/13 00:49:26;;;;;;;18.90;14.87;;;7.60;99.90;;;;;;4994227;28;20187;-66
2020/12/13 00:51:51;;;;;;;17.63;14.70;;;7.70;99.90;;;;;;5008460;28;20657;-65
2020/12/13 00:54:17;;;;;;;17.03;14.57;;;7.90;99.90;;;;;;5010760;28;21556;-65
2020/12/13 00:56:46;;;;;;;17.73;14.03;;;7.80;99.90;;;;;;5008412;28;20235;-64
2020/12/13 00:59:11;;;;;;;19.20;13.87;;;7.80;99.90;;;;;;5012790;28;20180;-65
2020/12/13 01:01:37;;;;;;;17.13;12.97;;;7.80;99.90;;;;;;5009156;28;20506;-65
2020/12/13 01:04:03;;;;;;;19.87;13.33;;;7.80;99.90;;;;;;4978049;28;20180;-64
2020/12/13 01:06:29;;;;;;;19.63;12.63;;;7.90;99.90;;;;;;4998592;28;20190;-63
2020/12/13 01:08:54;;;;;;;17.57;12.90;;;8.00;99.90;;;;;;5004675;28;20493;-65
2020/12/13 01:11:22;;;;;;;14.90;12.67;;;7.90;99.90;;;;;;5000170;28;20216;-65
2020/12/13 01:13:48;;;;;;;20.03;12.47;;;7.90;99.90;;;;;;5011043;28;20187;-67
2020/12/13 01:16:16;;;;;;;19.27;14.13;;;7.90;99.90;;;;;;5007407;28;20463;-65
2020/12/13 01:18:41;;;;;;;15.67;13.57;;;7.90;99.90;;;;;;5004382;28;20184;-66
2020/12/13 01:21:07;;;;;;;17.30;13.23;;;8.00;99.90;;;;;;5003829;28;20974;-63
2020/12/13 01:23:33;;;;;;;15.83;12.70;;;7.90;99.90;;;;;;5013613;28;20685;-63
2020/12/13 01:25:58;;;;;;;17.13;13.13;;;7.90;99.90;;;;;;5013755;28;20273;-65
2020/12/13 01:28:24;;;;;;;19.03;13.27;;;7.90;99.90;;;;;;5013473;28;20645;-65
2020/12/13 01:30:49;;;;;;;14.47;11.70;;;7.80;99.90;;;;;;5013183;28;20531;-64
2020/12/13 01:33:15;;;;;;;18.53;13.90;;;7.90;99.90;;;;;;5013375;28;20644;-64
2020/12/13 01:35:41;;;;;;;16.33;13.93;;;7.90;99.90;;;;;;5013625;28;20203;-66
2020/12/13 01:38:06;;;;;;;15.80;12.97;;;8.00;99.90;;;;;;5013106;28;20184;-66
2020/12/13 01:40:32;;;;;;;14.67;12.60;;;7.90;99.90;;;;;;5013347;28;20635;-64
2020/12/13 01:42:57;;;;;;;16.10;12.07;;;7.90;99.90;;;;;;5012869;28;20179;-64
2020/12/13 01:45:23;;;;;;;17.07;13.10;;;7.90;99.90;;;;;;4995917;28;20180;-65
2020/12/13 01:47:50;;;;;;;16.43;13.07;;;7.90;99.90;;;;;;5013215;28;20227;-63
2020/12/13 01:50:38;;;;;;;15.07;12.73;;;7.90;99.90;;;;;;5012879;28;20180;-65
2020/12/13 01:53:17;;;;;;;17.50;14.13;;;7.90;99.90;;;;;;5012642;28;20943;-65
2020/12/13 01:55:45;;;;;;;17.50;12.10;;;7.80;99.90;;;;;;5013342;28;20446;-66
2020/12/13 01:58:36;;;;;;;18.00;13.20;;;7.90;99.90;;;;;;5011854;28;20416;-65
2020/12/13 02:01:05;;;;;;;19.33;14.50;;;7.80;99.90;;;;;;5002251;28;20432;-64
2020/12/13 02:03:48;;;;;;;18.73;13.47;;;7.80;99.90;;;;;;5012635;28;20494;-65
2020/12/13 02:06:23;;;;;;;16.73;13.53;;;7.80;99.90;;;;;;4987361;28;20443;-65
2020/12/13 02:08:49;;;;;;;16.77;13.43;;;7.90;99.90;;;;;;5012737;28;20427;-65
2020/12/13 02:11:16;;;;;;;17.27;13.50;;;7.90;99.90;;;;;;5012914;28;20431;-65
2020/12/13 02:13:42;;;;;;;18.17;12.93;;;7.90;99.90;;;;;;5012783;28;20857;-66
2020/12/13 02:16:07;;;;;;;15.70;13.77;;;7.90;99.90;;;;;;4985680;28;20534;-65
2020/12/13 02:18:34;;;;;;;20.63;13.40;;;7.90;99.90;;;;;;5012292;28;20180;-65
2020/12/13 02:21:13;;;;;;;17.03;13.33;;;8.00;99.90;;;;;;5014857;28;20315;-64
2020/12/13 02:23:46;;;;;;;17.23;13.30;;;7.90;99.90;;;;;;5010876;28;20897;-65
2020/12/13 02:26:14;;;;;;;16.53;12.90;;;7.90;99.90;;;;;;5011191;28;20990;-64
2020/12/13 02:28:41;;;;;;;17.30;12.97;;;7.90;99.90;;;;;;4996044;28;20515;-63
2020/12/13 02:31:07;;;;;;;14.73;12.53;;;7.90;99.90;;;;;;5012255;28;20506;-66
2020/12/13 02:33:35;;;;;;;15.93;12.30;;;8.00;99.90;;;;;;4997221;28;20507;-65
2020/12/13 02:36:02;;;;;;;13.63;11.93;;;8.00;99.90;;;;;;5011900;28;20443;-63
2020/12/13 02:38:28;;;;;;;14.20;11.67;;;8.00;99.90;;;;;;5007488;28;20911;-64
2020/12/13 02:40:54;;;;;;;14.17;11.13;;;7.90;99.90;;;;;;4997915;28;20420;-64
2020/12/13 02:43:20;;;;;;;13.87;11.33;;;7.90;99.90;;;;;;5002589;28;20227;-64
2020/12/13 02:45:45;;;;;;;15.03;11.53;;;8.00;99.90;;;;;;5001662;28;20782;-64
2020/12/13 02:48:11;;;;;;;14.77;11.80;;;7.90;99.90;;;;;;4992231;28;20647;-64
2020/12/13 02:50:38;;;;;;;17.87;12.27;;;7.80;99.90;;;;;;4995886;28;20177;-65
2020/12/13 02:53:04;;;;;;;13.80;11.53;;;7.90;99.90;;;;;;5011805;28;20193;-65
2020/12/13 02:55:29;;;;;;;16.37;12.00;;;7.80;99.90;;;;;;4993755;28;20766;-64
2020/12/13 02:57:55;;;;;;;15.53;12.43;;;7.90;99.90;;;;;;4992357;28;20177;-65
2020/12/13 03:00:21;;;;;;;13.03;10.63;;;7.80;99.90;;;;;;4994869;28;20231;-64
2020/12/13 03:02:46;;;;;;;14.13;10.90;;;7.80;99.90;;;;;;4992466;28;20604;-65
2020/12/13 03:05:12;;;;;;;13.43;11.17;;;7.80;99.90;;;;;;4991909;28;20169;-66
2020/12/13 03:07:37;;;;;;;12.90;11.17;;;7.80;99.90;;;;;;4991986;28;20540;-65
2020/12/13 03:10:04;;;;;;;16.33;11.07;;;7.80;99.90;;;;;;4991148;28;20181;-64
2020/12/13 03:12:29;;;;;;;19.27;11.03;;;7.80;99.90;;;;;;4991861;28;22129;-65
2020/12/13 03:14:55;;;;;;;11.67;9.80;;;7.90;99.90;;;;;;4998797;28;20436;-63
2020/12/13 03:17:22;;;;;;;13.27;9.80;;;8.00;99.90;;;;;;4991718;28;20304;-64
2020/12/13 03:19:48;;;;;;;16.73;9.57;;;8.00;99.90;;;;;;4992075;28;20173;-64
2020/12/13 03:22:14;;;;;;;9.47;8.37;;;8.10;99.90;;;;;;5007521;28;20459;-64
2020/12/13 03:24:40;;;;;;;9.73;8.10;;;8.00;99.90;;;;;;5011307;28;20423;-66
2020/12/13 03:27:05;;;;;;;14.40;8.23;;;8.00;99.90;;;;;;5011383;28;20231;-64
2020/12/13 03:29:31;;;;;;;9.83;7.70;;;8.10;99.90;;;;;;5011149;28;20208;-64
2020/12/13 03:31:57;;;;;;;9.87;8.33;;;8.10;99.90;;;;;;5011202;28;20180;-63
2020/12/13 03:34:23;;;;;;;8.70;7.73;;;8.10;99.90;;;;;;5011276;28;20188;-65
2020/12/13 03:36:48;;;;;;;10.20;7.60;;;8.20;99.90;;;;;;5011255;28;20705;-65
2020/12/13 03:39:14;;;;;;;9.17;7.53;;;8.10;99.90;;;;;;5011105;28;20172;-66
2020/12/13 03:41:40;;;;;;;8.20;7.40;;;8.10;99.90;;;;;;5011006;28;20180;-65
2020/12/13 03:44:05;;;;;;;8.17;6.93;;;8.10;99.90;;;;;;5011249;28;20188;-64
2020/12/13 03:46:31;;;;;;;9.57;7.73;;;8.10;99.90;;;;;;5011178;28;20184;-65
2020/12/13 03:48:57;;;;;;;8.60;7.10;;;8.10;99.90;;;;;;5011007;28;20188;-65
2020/12/13 03:51:22;;;;;;;7.00;6.27;;;8.10;99.90;;;;;;5011108;28;20181;-65
2020/12/13 03:53:48;;;;;;;7.90;6.47;;;8.10;99.90;;;;;;5011112;28;20635;-65
2020/12/13 03:56:13;;;;;;;8.17;6.80;;;8.10;99.90;;;;;;5011003;28;20208;-67
2020/12/13 03:58:39;;;;;;;7.00;6.10;;;8.20;99.90;;;;;;5010922;28;20619;-64
2020/12/13 04:01:04;;;;;;;6.50;5.90;;;8.20;99.90;;;;;;5011114;28;20177;-67
2020/12/13 04:03:30;;;;;;;8.30;6.60;;;8.20;99.90;;;;;;5011020;28;20275;-66
2020/12/13 04:05:56;;;;;;;7.13;5.57;;;8.20;99.90;;;;;;5010668;28;20192;-65
2020/12/13 04:08:21;;;;;;;6.40;5.80;;;8.20;99.90;;;;;;5010969;28;20172;-65
2020/12/13 04:10:47;;;;;;;7.73;6.27;;;8.10;99.90;;;;;;5010882;28;20185;-64
2020/12/13 04:13:12;;;;;;;6.30;5.70;;;8.10;99.90;;;;;;5010652;28;20176;-64
2020/12/13 04:15:38;;;;;;;6.30;5.40;;;8.20;99.90;;;;;;5010813;28;20183;-66
2020/12/13 04:18:04;;;;;;;6.33;5.73;;;8.10;99.90;;;;;;5010471;28;20176;-66
2020/12/13 04:20:29;;;;;;;5.93;5.43;;;8.10;99.90;;;;;;5010927;28;20182;-65
2020/12/13 04:22:55;;;;;;;7.43;5.53;;;8.10;99.90;;;;;;5010984;28;20280;-65
2020/12/13 04:25:21;;;;;;;6.03;5.33;;;8.20;99.90;;;;;;4995352;28;20185;-65
2020/12/13 04:27:47;;;;;;;4.80;4.30;;;8.20;99.90;;;;;;5006498;28;20563;-64
2020/12/13 04:30:12;;;;;;;4.87;4.47;;;8.10;99.90;;;;;;5009390;28;20185;-66
2020/12/13 04:32:38;;;;;;;5.10;4.30;;;8.20;99.90;;;;;;5009982;28;20238;-65
2020/12/13 04:35:04;;;;;;;5.60;3.57;;;8.20;99.90;;;;;;5001327;28;20199;-65
2020/12/13 04:37:30;;;;;;;5.23;4.00;;;8.30;99.90;;;;;;5007544;28;20290;-66
2020/12/13 04:39:56;;;;;;;4.07;3.73;;;8.40;99.90;;;;;;5002661;28;20420;-65
2020/12/13 04:42:22;;;;;;;3.70;3.40;;;8.30;99.90;;;;;;4994866;28;20420;-64
2020/12/13 04:44:49;;;;;;;4.17;3.77;;;8.40;99.90;;;;;;5004425;28;20177;-66
2020/12/13 04:47:19;;;;;;;4.57;3.87;;;8.30;99.90;;;;;;4994718;28;20419;-65
2020/12/13 04:49:50;;;;;;;4.23;3.60;;;8.40;99.90;;;;;;5008516;28;20424;-66
2020/12/13 04:52:16;;;;;;;4.80;3.80;;;8.30;99.90;;;;;;5004279;28;20420;-64
2020/12/13 04:54:51;;;;;;;5.70;4.17;;;8.30;99.90;;;;;;4994339;28;20859;-64
2020/12/13 04:57:20;;;;;;;4.30;3.90;;;8.30;99.90;;;;;;4994239;28;20467;-65
2020/12/13 04:59:47;;;;;;;5.37;4.30;;;8.30;99.90;;;;;;4994524;28;20451;-64
2020/12/13 05:02:14;;;;;;;4.83;4.33;;;8.30;99.90;;;;;;4994394;28;20914;-65
2020/12/13 05:04:41;;;;;;;4.70;4.30;;;8.20;99.90;;;;;;4994403;28;20420;-66
2020/12/13 05:07:07;;;;;;;5.33;4.83;;;8.20;99.90;;;;;;4994431;28;20436;-64
2020/12/13 05:09:33;;;;;;;6.00;4.80;;;8.20;99.90;;;;;;4997121;28;20958;-64
2020/12/13 05:11:59;;;;;;;7.27;4.57;;;8.20;99.90;;;;;;4994261;28;20876;-64
2020/12/13 05:14:25;;;;;;;5.60;5.10;;;8.20;99.90;;;;;;4994428;28;20421;-64
2020/12/13 05:17:05;;;;;;;7.30;5.17;;;8.20;99.90;;;;;;4994056;28;20296;-64
2020/12/13 05:19:31;;;;;;;6.43;4.70;;;8.10;99.90;;;;;;4998268;28;20483;-64
2020/12/13 05:22:00;;;;;;;6.47;5.13;;;8.10;99.90;;;;;;5005832;28;20801;-65
2020/12/13 05:24:25;;;;;;;5.30;4.80;;;8.20;99.90;;;;;;5013741;28;20239;-67
2020/12/13 05:27:05;;;;;;;7.27;5.13;;;8.20;99.90;;;;;;5013527;28;20813;-64
2020/12/13 05:29:35;;;;;;;8.60;5.60;;;8.30;99.90;;;;;;5013705;28;20254;-65
2020/12/13 05:32:10;;;;;;;6.63;4.67;;;8.40;99.90;;;;;;5019979;28;20419;-65
2020/12/13 05:34:38;;;;;;;5.70;5.13;;;8.40;99.90;;;;;;5013341;28;20948;-64
2020/12/13 05:37:13;;;;;;;6.03;4.90;;;8.20;99.90;;;;;;5013429;28;20550;-66
2020/12/13 05:39:42;;;;;;;6.27;5.00;;;8.20;99.90;;;;;;5032779;28;20494;-64
2020/12/13 05:42:08;;;;;;;5.97;5.37;;;8.30;99.90;;;;;;5033059;28;20417;-64
2020/12/13 05:50:01;;;;;;;8.70;5.47;;;8.30;99.90;;;;;;5014853;28;20418;-65
2020/12/13 05:52:26;;;;;;;6.37;5.50;;;8.20;99.90;;;;;;5020667;28;20917;-64
2020/12/13 05:54:53;;;;;;;5.50;5.00;;;8.20;99.90;;;;;;5032477;28;20473;-66
2020/12/13 05:57:20;;;;;;;5.63;5.13;;;8.20;99.90;;;;;;5032471;28;20254;-66
2020/12/13 05:59:45;;;;;;;5.57;4.67;;;8.20;99.90;;;;;;5023206;28;20821;-65
2020/12/13 06:02:11;;;;;;;5.20;4.70;;;8.20;99.90;;;;;;5027026;28;20429;-65
2020/12/13 06:04:43;;;;;;;5.47;4.83;;;8.30;99.90;;;;;;5030050;28;20226;-65
2020/12/13 06:07:11;;;;;;;5.80;5.30;;;8.20;99.90;;;;;;5025985;28;20184;-64
2020/12/13 06:09:41;;;;;;;6.27;5.67;;;8.20;99.90;;;;;;5022346;28;20420;-65
2020/12/13 06:12:12;;;;;;;7.20;5.47;;;8.20;99.90;;;;;;5023787;28;20426;-65
2020/12/13 06:14:41;;;;;;;6.70;5.83;;;8.20;99.90;;;;;;5032585;28;20419;-65
2020/12/13 06:17:07;;;;;;;6.73;6.03;;;8.10;99.90;;;;;;5021419;28;20550;-65
2020/12/13 06:19:34;;;;;;;6.07;5.30;;;8.20;99.90;;;;;;5032034;28;20419;-64
2020/12/13 06:22:03;;;;;;;7.10;5.30;;;8.20;99.90;;;;;;5006950;28;20466;-65
2020/12/13 06:24:29;;;;;;;5.80;5.13;;;8.30;99.90;;;;;;5012359;28;20407;-64
2020/12/13 06:26:56;;;;;;;5.53;5.03;;;8.30;99.90;;;;;;4999572;28;20412;-65
2020/12/13 06:29:23;;;;;;;5.30;4.80;;;8.30;99.90;;;;;;4992660;28;20428;-65
2020/12/13 06:31:50;;;;;;;6.43;5.20;;;8.30;99.90;;;;;;4992826;28;20933;-65
2020/12/13 06:34:16;;;;;;;5.17;4.67;;;8.30;99.90;;;;;;4992497;28;20907;-66
2020/12/13 06:36:42;;;;;;;6.93;4.97;;;8.40;99.90;;;;;;4996046;28;20440;-65
2020/12/13 06:39:17;;;;;;;5.80;5.20;;;8.40;99.90;;;;;;5012293;28;20474;-65
2020/12/13 06:41:50;;;;;;;5.83;5.33;;;8.40;99.90;;;;;;5012004;28;20176;-66
2020/12/13 06:44:16;;;;;;;6.93;6.17;;;8.30;99.90;;;;;;5002318;28;20409;-66
2020/12/13 06:46:46;;;;;;;6.03;5.43;;;8.40;99.90;;;;;;4992539;28;20940;-66
2020/12/13 06:49:17;;;;;;;6.00;5.50;;;8.30;99.90;;;;;;5002771;28;20432;-64
2020/12/13 06:51:44;;;;;;;6.73;6.10;;;8.40;99.90;;;;;;5011996;28;20510;-65
2020/12/13 06:54:12;;;;;;;6.30;5.70;;;8.40;99.90;;;;;;5012174;28;20427;-65
2020/12/13 06:56:39;;;;;;;7.73;6.20;;;8.40;99.90;;;;;;5011797;28;20451;-64
2020/12/13 06:59:07;;;;;;;7.97;5.97;;;8.30;99.90;;;;;;4992718;28;20443;-67
2020/12/13 07:01:36;;;;;;;7.10;5.23;;;8.40;99.90;;;;;;4992244;28;20409;-66
2020/12/13 07:04:20;;;;;;;6.63;5.53;;;8.50;99.90;;;;;;4993516;28;20455;-64
2020/12/13 07:06:47;;;;;;;6.50;5.63;;;8.50;99.90;;;;;;4992238;28;20404;-67
2020/12/13 07:09:14;;;;;;;6.50;5.90;;;8.40;99.90;;;;;;4991988;28;21013;-67
2020/12/13 07:11:42;;;;;;;8.33;6.83;;;8.30;99.90;;;;;;4992631;28;20756;-65
2020/12/13 07:14:11;;;;;;;6.97;6.37;;;8.30;99.90;;;;;;5011273;28;20427;-64
2020/12/13 07:16:42;;;;;;;8.37;6.50;;;8.30;99.90;;;;;;5011395;28;20455;-66
2020/12/13 07:19:14;;;;;;;7.47;6.17;;;8.30;99.90;;;;;;5011653;28;20466;-67
2020/12/13 07:21:43;;;;;;;7.57;6.87;;;8.30;99.90;;;;;;5019397;28;20959;-65
2020/12/13 07:24:10;;;;;;;8.33;5.97;;;8.40;99.90;;;;;;5011349;28;20418;-64
2020/12/13 07:26:36;;;;;;;8.33;6.07;;;8.40;99.90;;;;;;5013863;28;20420;-65
2020/12/13 07:29:05;;;;;;;6.00;5.43;;;8.40;99.90;;;;;;5011201;28;20477;-64
2020/12/13 07:31:38;;;;;;;6.70;5.10;;;8.30;99.90;;;;;;5026663;28;20774;-66
2020/12/13 07:34:06;;;;;;;7.57;5.53;;;8.30;99.90;;;;;;5030952;28;20788;-66
2020/12/13 07:36:34;;;;;;;6.97;5.70;;;8.40;99.90;;;;;;5030839;28;20450;-66
2020/12/13 07:39:05;;;;;;;5.87;4.20;;;8.30;99.90;;;;;;5030862;28;20446;-67
2020/12/13 07:41:31;;;;;;;4.20;3.80;;;8.40;99.90;;;;;;5030572;28;20414;-65
2020/12/13 07:44:01;;;;;;;4.30;3.90;;;8.40;99.90;;;;;;5030747;28;20912;-64
2020/12/13 07:46:30;;;;;;;5.07;3.73;;;8.30;99.90;;;;;;5030717;28;20884;-64
2020/12/13 07:49:13;;;;;;;5.03;4.03;;;8.40;99.90;;;;;;5030701;28;20478;-66
2020/12/13 07:51:41;;;;;;;4.03;3.43;;;8.40;99.90;;;;;;5030522;28;20437;-65
2020/12/13 07:54:14;;;;;;;5.97;4.00;;;8.40;99.90;;;;;;5030538;28;20422;-67
2020/12/13 07:56:40;;;;;;;5.13;3.67;;;8.40;99.90;;;;;;5029863;28;20947;-66
2020/12/13 07:59:09;;;;;;;3.70;3.07;;;8.40;99.90;;;;;;5030545;28;20411;-65
2020/12/13 08:01:35;;;;;;;5.47;3.03;;;8.40;99.90;;;;;;5019771;28;20430;-64
2020/12/13 08:04:00;;;;;;;3.97;3.27;;;8.40;99.90;;;;;;5010936;28;20411;-64
2020/12/13 08:06:26;;;;;;;4.50;3.30;;;8.30;99.90;;;;;;5011019;28;20172;-65
2020/12/13 08:08:52;;;;;;;5.33;3.47;;;8.40;99.90;;;;;;5010890;28;20323;-65
2020/12/13 08:11:18;;;;;;;5.93;3.60;;;8.30;99.90;;;;;;5010934;28;20183;-64
2020/12/13 08:13:52;;;;;;;5.50;3.30;;;8.40;99.90;;;;;;5011077;28;20211;-66
2020/12/13 08:16:18;;;;;;;6.07;4.43;;;8.50;99.90;;;;;;5010904;28;21211;-64
2020/12/13 08:18:46;;;;;;;6.30;4.60;;;8.40;99.90;;;;;;5010900;28;20430;-64
2020/12/13 08:21:14;;;;;;;6.33;3.23;;;8.50;99.90;;;;;;5012107;28;20884;-65
2020/12/13 08:23:40;;;;;;;7.40;4.00;;;8.50;99.90;;;;;;5010805;28;20454;-65
2020/12/13 08:26:08;;;;;;;6.47;4.17;;;8.50;99.90;;;;;;5010937;28;20921;-64
2020/12/13 08:28:36;;;;;;;6.17;3.27;;;8.50;99.90;;;;;;5011071;28;20587;-64
2020/12/13 08:31:03;;;;;;;4.60;3.93;;;8.50;99.90;;;;;;5010678;28;20972;-64
2020/12/13 08:33:29;;;;;;;5.23;4.20;;;8.50;99.90;;;;;;5011849;28;20434;-65
2020/12/13 08:35:57;;;;;;;5.33;4.03;;;8.50;99.90;;;;;;5012581;28;20435;-64
2020/12/13 08:38:23;;;;;;;5.00;3.37;;;8.50;99.90;;;;;;5010788;28;20424;-64
2020/12/13 08:40:49;;;;;;;5.73;3.27;;;8.50;99.90;;;;;;5010871;28;20431;-64
2020/12/13 08:43:19;;;;;;;6.60;3.40;;;8.50;99.90;;;;;;5010723;28;20809;-63
2020/12/13 08:45:54;;;;;;;5.53;3.47;;;8.50;99.90;;;;;;5030276;28;20190;-65
2020/12/13 08:48:27;;;;;;;4.43;4.00;;;8.40;99.90;;;;;;5030020;28;20472;-64
2020/12/13 08:51:03;;;;;;;6.23;3.33;;;8.40;99.90;;;;;;5030103;28;20417;-64
2020/12/13 08:53:29;;;;;;;4.13;3.00;;;8.50;99.90;;;;;;5030062;28;20469;-64
2020/12/13 08:56:02;;;;;;;4.57;2.80;;;8.60;99.90;;;;;;5030167;28;20418;-63
2020/12/13 08:58:27;;;;;;;5.97;2.80;;;8.70;99.90;;;;;;5030122;28;20199;-63
2020/12/13 09:01:10;;;;;;;7.93;3.80;;;8.70;99.90;;;;;;5030503;28;20450;-64
2020/12/13 09:03:36;;;;;;;6.97;3.43;;;8.60;99.90;;;;;;5030011;28;20231;-65
2020/12/13 09:06:01;;;;;;;6.37;3.60;;;8.60;99.90;;;;;;5030137;28;20422;-64
2020/12/13 09:08:27;;;;;;;4.33;3.20;;;8.80;99.90;;;;;;5033285;28;20183;-64
2020/12/13 09:10:53;;;;;;;7.10;3.87;;;8.70;99.90;;;;;;5033589;28;20633;-64
2020/12/13 09:13:19;;;;;;;4.73;3.77;;;8.70;99.90;;;;;;5033517;28;20187;-64
2020/12/13 09:15:45;;;;;;;5.63;3.77;;;8.60;99.90;;;;;;5028311;28;20558;-63
2020/12/13 09:18:11;;;;;;;4.83;3.73;;;8.60;99.90;;;;;;5013882;28;20899;-64
2020/12/13 09:20:37;;;;;;;8.10;4.07;;;8.60;99.90;;;;;;5014023;28;20630;-64
2020/12/13 09:23:10;;;;;;;5.73;3.20;;;8.70;99.90;;;;;;5015011;28;20588;-64
2020/12/13 09:25:47;;;;;;;4.53;3.27;;;8.60;99.90;;;;;;5013494;28;20180;-64
2020/12/13 09:28:14;;;;;;;5.93;3.40;;;8.80;99.90;;;;;;5013558;28;20423;-64
2020/12/13 09:30:41;;;;;;;4.17;3.37;;;8.80;99.90;;;;;;5013584;28;20416;-64
2020/12/13 09:33:08;;;;;;;5.87;3.90;;;8.80;99.90;;;;;;5014058;28;20474;-64
2020/12/13 09:35:34;;;;;;;3.97;3.30;;;8.70;99.90;;;;;;5013462;28;20415;-65
2020/12/13 09:38:01;;;;;;;7.27;3.80;;;8.70;99.90;;;;;;5013270;28;20458;-64
2020/12/13 09:40:28;;;;;;;7.17;3.77;;;8.70;99.90;;;;;;5013429;28;20581;-65
2020/12/13 09:42:57;;;;;;;7.60;4.07;;;8.90;99.90;;;;;;5013783;28;20412;-65
2020/12/13 09:45:29;;;;;;;6.50;4.00;;;8.80;99.90;;;;;;5013432;28;20503;-65
2020/12/13 09:47:58;;;;;;;5.73;4.00;;;8.80;99.90;;;;;;5026289;28;20426;-64
2020/12/13 09:50:28;;;;;;;6.20;3.83;;;8.80;99.90;;;;;;5033028;28;20979;-64
2020/12/13 09:52:54;;;;;;;5.17;4.10;;;8.70;99.90;;;;;;5032882;28;20419;-64
2020/12/13 09:55:20;;;;;;;5.67;3.30;;;8.80;99.90;;;;;;5032719;28;20423;-65
2020/12/13 09:57:46;;;;;;;5.90;4.20;;;8.70;99.90;;;;;;5032784;28;20549;-64
2020/12/13 10:00:12;;;;;;;10.10;4.27;;;8.80;99.90;;;;;;5027474;28;20442;-67
2020/12/13 10:02:38;;;;;;;7.13;4.20;;;8.70;99.90;;;;;;5033192;28;20191;-66
2020/12/13 10:05:07;;;;;;;6.50;3.80;;;8.70;99.90;;;;;;5032647;28;20178;-67
2020/12/13 10:10:10;;;;;;;6.40;4.07;;;8.60;99.90;;;;;;5019862;28;20406;-66
2020/12/13 10:12:36;;;;;;;6.40;3.63;;;8.60;99.90;;;;;;5031707;28;20434;-66
2020/12/13 10:15:02;;;;;;;8.47;3.83;;;8.50;99.90;;;;;;5012946;28;20656;-65
2020/12/13 10:17:29;;;;;;;6.73;4.40;;;8.50;99.90;;;;;;5012412;28;20250;-66
2020/12/13 10:19:55;;;;;;;4.47;3.53;;;8.50;99.90;;;;;;5011936;28;20196;-66
2020/12/13 10:22:20;;;;;;;5.60;3.80;;;8.60;99.90;;;;;;5022389;28;20486;-66
2020/12/13 10:24:46;;;;;;;5.40;3.93;;;8.60;99.90;;;;;;5032304;28;20167;-66
2020/12/13 10:27:11;;;;;;;5.53;3.47;;;8.70;99.90;;;;;;5032625;28;20219;-65
2020/12/13 10:29:37;;;;;;;5.33;3.63;;;8.80;99.90;;;;;;5018021;28;20631;-66
2020/12/13 10:32:02;;;;;;;6.20;3.97;;;8.80;99.90;;;;;;5024258;28;20191;-66
2020/12/13 10:34:28;;;;;;;6.00;2.60;;;8.80;99.90;;;;;;5032154;28;20192;-66
2020/12/13 10:36:54;;;;;;;5.30;3.00;;;8.90;99.90;;;;;;5031873;28;20708;-65
2020/12/13 10:39:20;;;;;;;4.50;3.00;;;8.90;99.90;;;;;;5031828;28;20634;-66
2020/12/13 10:41:47;;;;;;;4.77;2.47;;;8.90;99.90;;;;;;5031413;28;20433;-67
2020/12/13 10:44:16;;;;;;;4.27;2.23;;;9.00;99.90;;;;;;5031641;28;20182;-67
2020/12/13 10:46:41;;;;;;;4.23;2.30;;;9.00;99.90;;;;;;5031622;28;20419;-67
2020/12/13 10:49:07;;;;;;;3.87;2.10;;;9.10;99.90;;;;;;5031250;28;20919;-65
2020/12/13 10:51:32;;;;;;;6.87;2.60;;;9.00;99.90;;;;;;5031779;28;20188;-66
2020/12/13 10:53:58;;;;;;;7.53;2.43;;;9.10;99.90;;;;;;5031391;28;20539;-67
2020/12/13 10:56:23;;;;;;;3.43;2.23;;;9.20;99.90;;;;;;5031453;28;20207;-66
2020/12/13 10:58:49;;;;;;;2.33;1.97;;;9.20;99.90;;;;;;5031569;28;20215;-68
2020/12/13 11:01:15;;;;;;;3.27;2.30;;;9.40;99.90;;;;;;5031394;28;20596;-65
2020/12/13 11:03:40;;;;;;;6.10;2.57;;;9.30;99.90;;;;;;5031504;28;20190;-65
2020/12/13 11:06:10;;;;;;;3.77;1.97;;;9.30;99.90;;;;;;5031075;28;20668;-67
2020/12/13 11:08:35;;;;;;;4.97;2.80;;;9.40;99.90;;;;;;5031298;28;20246;-66
2020/12/13 11:11:01;;;;;;;5.73;3.40;;;9.30;99.90;;;;;;5031106;28;20815;-67
2020/12/13 11:13:27;;;;;;;3.97;2.17;;;9.50;99.90;;;;;;5031200;28;20176;-65
2020/12/13 11:15:52;;;;;;;3.73;2.30;;;9.60;99.90;;;;;;5013435;28;20218;-66
2020/12/13 11:18:19;;;;;;;2.07;1.70;;;9.70;99.90;;;;;;5019459;28;20631;-66
2020/12/13 11:20:45;;;;;;;3.63;1.93;;;9.80;99.90;;;;;;5011817;28;20701;-65
2020/12/13 11:23:11;;;;;;;4.53;1.97;;;9.90;99.90;;;;;;5013764;28;20601;-66
2020/12/13 11:25:36;;;;;;;4.20;2.60;;;10.00;99.90;;;;;;5030907;28;20299;-66
2020/12/13 11:28:04;;;;;;;4.77;1.90;;;10.20;99.90;;;;;;5030870;28;20180;-67
2020/12/13 11:30:30;;;;;;;6.23;2.63;;;10.00;99.90;;;;;;5029833;28;20172;-65
2020/12/13 11:32:55;;;;;;;4.10;1.93;;;10.20;99.90;;;;;;5030895;28;20480;-67
2020/12/13 11:35:21;;;;;;;5.77;1.97;;;10.20;99.90;;;;;;5030929;28;20644;-65
2020/12/13 11:37:47;;;;;;;2.33;1.80;;;10.60;99.90;;;;;;5029360;28;20195;-66
2020/12/13 11:40:13;;;;;;;4.37;2.03;;;10.70;99.90;;;;;;5031018;28;20176;-66
2020/12/13 11:42:39;;;;;;;3.00;2.03;;;10.80;99.90;;;;;;5030558;28;20172;-66
2020/12/13 11:45:05;;;;;;;6.40;3.40;;;11.00;99.90;;;;;;5024688;28;20188;-65
2020/12/13 11:47:31;;;;;;;4.57;2.00;;;11.30;99.90;;;;;;5011022;28;20204;-66
2020/12/13 11:49:57;;;;;;;3.73;1.70;;;11.60;99.90;;;;;;5030761;28;20211;-65
2020/12/13 11:52:22;;;;;;;4.07;1.67;;;11.80;99.00;;;;;;5031381;28;20522;-66
2020/12/13 11:54:48;;;;;;;3.40;1.77;;;11.80;99.90;;;;;;5031089;28;20179;-66
2020/12/13 11:57:14;;;;;;;4.30;1.90;;;11.80;99.80;;;;;;5031120;28;20726;-67
2020/12/13 11:59:39;;;;;;;6.13;2.40;;;12.20;99.90;;;;;;5023135;28;20283;-64
2020/12/13 12:02:05;;;;;;;5.63;2.00;;;12.70;99.90;;;;;;5030685;28;20210;-65
2020/12/13 12:04:31;;;;;;;4.23;1.80;;;13.40;99.90;;;;;;5021010;28;20184;-66
2020/12/13 12:06:56;;;;;;;3.60;1.77;;;13.50;91.80;;;;;;5030401;28;20179;-65
2020/12/13 12:09:22;;;;;;;4.13;1.83;;;13.80;92.20;;;;;;5017559;28;20528;-66
2020/12/13 12:11:48;;;;;;;2.73;1.90;;;14.00;91.30;;;;;;5021114;28;20193;-65
2020/12/13 12:14:14;;;;;;;3.47;1.67;;;13.90;88.20;;;;;;5030297;28;20183;-65
2020/12/13 12:16:41;;;;;;;2.50;1.20;;;13.80;89.30;;;;;;5017861;28;20207;-66
2020/12/13 12:19:07;;;;;;;3.93;1.47;;;14.20;87.80;;;;;;5011162;28;20194;-65
2020/12/13 12:21:35;;;;;;;3.13;1.80;;;14.30;92.30;;;;;;5020029;28;20187;-64
2020/12/13 12:24:02;;;;;;;3.70;1.73;;;14.50;90.10;;;;;;5030502;28;20211;-64
2020/12/13 12:26:32;;;;;;;3.17;1.50;;;15.20;88.30;;;;;;5030273;28;20211;-65
2020/12/13 12:28:59;;;;;;;3.07;1.77;;;15.70;88.50;;;;;;5030276;28;20184;-66
2020/12/13 12:31:25;;;;;;;2.97;1.50;;;15.90;83.80;;;;;;5030015;28;20580;-65
2020/12/13 12:33:51;;;;;;;3.87;1.63;;;15.60;78.60;;;;;;5030400;28;20259;-66
2020/12/13 12:36:22;;;;;;;3.83;2.10;;;15.40;80.40;;;;;;5010975;28;20299;-66
2020/12/13 12:38:48;;;;;;;3.97;1.70;;;15.70;86.20;;;;;;5018950;28;20173;-64
2020/12/13 12:41:15;;;;;;;3.80;1.43;;;15.80;79.50;;;;;;5028497;28;20172;-65
2020/12/13 12:43:42;;;;;;;3.17;1.57;;;15.70;73.10;;;;;;5033683;28;20182;-65
2020/12/13 12:46:07;;;;;;;10.20;4.30;;;14.80;76.50;;;;;;5034483;28;20633;-65
2020/12/13 12:48:33;;;;;;;9.90;4.90;;;14.70;78.70;;;;;;5033780;28;20172;-66
2020/12/13 12:51:01;;;;;;;4.20;2.20;;;14.90;83.00;;;;;;5034211;28;20211;-65
2020/12/13 12:53:27;;;;;;;2.83;1.33;;;15.10;80.00;;;;;;5033894;28;20180;-65
2020/12/13 12:55:52;;;;;;;2.50;1.40;;;15.20;77.60;;;;;;5019249;28;20176;-65
2020/12/13 12:58:18;;;;;;;3.80;1.73;;;15.00;75.80;;;;;;5014145;28;20634;-66